Latest Weather Observations for Kalgoorlie-Boulder

IDW60801

Issued at 9:05 pm WST Friday 18 April 2014 (issued every 30 minutes, with the page automatically refreshed every 10 minutes)

About weather observations | Map of weather stations | Latest weather observations for WA | Other Formats
Station Details ID: 012038 Name: KALGOORLIE-BOULDER AIRPORT Lat: -30.78 Lon: 121.45 Height: 365.3 m
Data from the previous 72 hours. | See also: Recent months at Kalgoorlie-Boulder
Date/Time
WST
Temp
°C
App
Temp
°C
Dew
Point
Rel
Hum
%
Delta-T
°C
Wind Press
QNH
hPa
Press
MSL
hPa
Rain
since 9 am
mm
Dir
 
Spd
km/h
Gust
km/h
Spd
kts
Gust
kts
18/09:00pm 21.0 18.8 7.7 42 7.0 NNE 9 11 5 6 1020.2 1019.1 0.0
18/08:30pm 21.1 18.8 7.3 41 7.2 N 9 13 5 7 1020.2 - 0.0
18/08:00pm 22.0 19.7 7.3 38 7.7 NNE 9 13 5 7 1020.1 - 0.0
18/07:30pm 21.7 19.5 7.7 40 7.4 NNE 9 11 5 6 1020.0 - 0.0
18/07:00pm 22.5 20.7 7.8 38 7.8 NNE 7 9 4 5 1019.9 - 0.0
18/06:30pm 23.4 21.4 7.1 35 8.6 NNE 7 7 4 4 1019.8 - 0.0
18/06:00pm 24.6 22.5 6.8 32 9.4 NNE 7 9 4 5 1019.6 1018.5 0.0
18/05:30pm 25.6 23.1 6.5 29 10.1 NNE 9 11 5 6 1019.5 - 0.0
18/05:00pm 27.0 24.1 6.3 26 11.0 NNE 11 19 6 10 1019.4 - 0.0
18/04:30pm 27.7 24.7 6.0 25 11.5 NNE 11 17 6 9 1019.3 - 0.0
18/04:00pm 27.6 24.4 7.0 27 11.1 NNE 13 20 7 11 1019.5 - 0.0
18/03:30pm 28.2 25.3 6.6 25 11.6 N 11 19 6 10 1019.5 - 0.0
18/03:00pm 27.6 25.1 8.1 29 10.7 NNE 11 19 6 10 1019.6 1018.5 0.0
18/02:30pm 27.6 25.3 8.9 31 10.4 NE 11 19 6 10 1019.8 - 0.0
18/02:00pm 26.9 23.9 9.4 33 9.8 ENE 15 22 8 12 1020.1 - 0.0
18/01:30pm 25.4 22.2 9.8 37 8.7 ENE 17 22 9 12 1020.5 - 0.0
18/01:00pm 25.8 23.1 10.4 38 8.7 ENE 15 20 8 11 1020.9 - 0.0
18/12:30pm 24.2 21.5 10.5 42 7.7 E 15 22 8 12 1021.5 - 0.0
18/12:00pm 24.1 21.4 10.3 41 7.7 ENE 15 22 8 12 1022.1 1021.0 0.0
18/11:30am 23.1 20.1 10.6 45 7.0 ENE 17 24 9 13 1022.7 - 0.0
18/11:00am 22.7 20.1 10.7 46 6.7 ENE 15 22 8 12 1023.2 - 0.0
18/10:30am 21.6 18.6 10.8 50 6.0 E 17 22 9 12 1023.7 - 0.0
18/10:00am 20.9 18.4 11.0 53 5.5 E 15 20 8 11 1023.9 - 0.0
18/09:30am 19.6 16.7 11.1 58 4.7 E 17 28 9 15 1024.1 - 0.0
18/09:00am 18.9 15.7 11.1 60 4.3 E 19 26 10 14 1024.3 1023.2 0.0
18/08:30am 17.8 14.4 11.3 65 3.6 E 20 28 11 15 1024.4 - 0.0
18/08:00am 17.1 13.9 11.3 68 3.2 E 19 24 10 13 1024.5 - 0.0
18/07:30am 16.1 13.2 11.1 72 2.7 ESE 17 20 9 11 1024.3 - 0.0
18/07:16am 15.5 13.4 11.1 75 2.4 ESE 13 20 7 11 1024.2 - 0.0
18/07:00am 15.3 12.8 11.0 75 2.3 ESE 15 19 8 10 1024.1 - 0.0
18/06:30am 14.9 12.8 11.0 77 2.1 ESE 13 20 7 11 1023.9 - 0.0
18/06:03am 14.4 12.2 10.9 79 1.9 E 13 17 7 9 1023.9 - 0.0
18/06:00am 14.4 11.9 10.9 79 1.9 E 15 17 8 9 1023.9 1022.8 0.0
18/05:30am 14.6 11.2 10.7 77 2.1 ESE 19 22 10 12 1023.6 - 0.0
18/05:00am 15.1 11.5 10.6 74 2.4 E 20 30 11 16 1023.4 - 0.0
18/04:30am 15.5 11.8 10.0 70 2.9 E 20 24 11 13 1023.2 - 0.0
18/04:00am 15.8 11.7 10.2 69 3.0 E 22 30 12 16 1023.1 - 0.0
18/03:30am 15.9 12.4 10.1 68 3.1 E 19 26 10 14 1022.9 - 0.0
18/03:00am 16.0 12.3 9.6 66 3.4 ESE 19 22 10 12 1022.8 1021.7 0.0
18/02:30am 16.3 12.4 9.3 63 3.7 ESE 20 24 11 13 1022.6 - 0.0
18/02:00am 16.5 12.2 9.3 62 3.8 ESE 22 32 12 17 1022.6 - 0.0
18/01:30am 16.8 12.9 9.4 61 3.9 SE 20 28 11 15 1022.7 - 0.0
18/01:00am 17.6 13.4 9.7 60 4.2 SE 22 33 12 18 1022.7 - 0.0
18/12:30am 18.2 13.6 9.8 58 4.5 SE 24 35 13 19 1022.7 - 0.0
18/12:00am 18.8 14.2 9.7 55 4.9 SE 24 33 13 18 1022.6 1021.5 0.0
 
Date/Time
WST
Temp
°C
App
Temp
°C
Dew
Point
Rel
Hum
%
Delta-T
°C
Wind Press
QNH
hPa
Press
MSL
hPa
Rain
since 9 am
mm
Dir
 
Spd
km/h
Gust
km/h
Spd
kts
Gust
kts
17/11:30pm 19.3 14.7 9.6 53 5.2 SE 24 35 13 19 1022.5 - 0.0
17/11:00pm 20.1 16.1 8.4 47 6.2 SE 19 28 10 15 1022.3 - 0.0
17/10:30pm 21.0 17.1 6.9 40 7.3 SSE 17 24 9 13 1022.2 - 0.0
17/10:00pm 21.7 17.9 5.8 35 8.1 SSE 15 22 8 12 1021.8 - 0.0
17/09:30pm 22.7 18.7 5.1 32 8.9 SSE 15 20 8 11 1021.5 - 0.0
17/09:00pm 23.5 19.4 4.6 29 9.5 SSE 15 22 8 12 1021.3 1020.2 0.0
17/08:30pm 23.8 19.2 3.9 27 9.9 SSE 17 26 9 14 1021.0 - 0.0
17/08:00pm 23.7 19.3 2.8 25 10.2 S 15 19 8 10 1020.7 - 0.0
17/07:30pm 23.7 19.8 3.4 26 10.0 SSW 13 17 7 9 1020.3 - 0.0
17/07:00pm 24.7 20.8 3.3 25 10.6 SSW 13 17 7 9 1020.1 - 0.0
17/06:30pm 24.6 21.2 3.8 26 10.4 S 11 13 6 7 1019.7 - 0.0
17/06:00pm 25.7 22.2 3.6 24 11.1 SSW 11 13 6 7 1019.4 1018.3 0.0
17/05:30pm 28.1 23.6 2.1 18 12.9 S 15 19 8 10 1019.1 - 0.0
17/05:00pm 29.7 25.6 2.3 17 13.8 SSW 13 19 7 10 1018.8 - 0.0
17/04:30pm 30.6 25.7 2.0 16 14.4 WSW 17 22 9 12 1018.5 - 0.0
17/04:00pm 30.9 25.3 1.2 15 14.8 WSW 20 30 11 16 1018.5 - 0.0
17/03:30pm 31.3 26.7 1.3 14 15.0 WSW 15 24 8 13 1018.3 - 0.0
17/03:00pm 31.5 27.7 4.0 17 14.4 W 13 22 7 12 1018.2 1017.0 0.0
17/02:30pm 31.7 26.3 2.3 15 15.0 WSW 20 30 11 16 1018.2 - 0.0
17/02:00pm 31.8 27.1 3.2 16 14.8 WSW 17 28 9 15 1018.3 - 0.0
17/01:30pm 31.5 26.7 2.6 16 14.8 W 17 24 9 13 1018.4 - 0.0
17/01:00pm 30.9 25.9 3.4 17 14.2 WNW 19 35 10 19 1018.7 - 0.0
17/12:30pm 31.2 26.0 3.4 17 14.4 WSW 20 33 11 18 1019.0 - 0.0
17/12:00pm 30.1 25.0 4.2 19 13.5 WSW 20 30 11 16 1019.6 1018.5 0.0
17/11:30am 29.9 25.2 5.1 20 13.1 WNW 19 32 10 17 1020.0 - 0.0
17/11:00am 29.6 25.3 5.2 21 12.9 WNW 17 24 9 13 1020.5 - 0.0
17/10:30am 28.0 24.7 6.5 25 11.5 WNW 13 22 7 12 1020.9 - 0.0
17/10:00am 27.1 23.0 6.4 26 11.0 W 17 22 9 12 1020.9 - 0.0
17/09:30am 26.7 22.6 6.0 26 10.9 NW 17 24 9 13 1020.8 - 0.0
17/09:00am 25.3 21.6 6.2 29 10.0 NNW 15 22 8 12 1020.8 1019.6 0.0
17/08:30am 23.3 20.5 6.9 34 8.6 NW 11 15 6 8 1020.7 - 0.0
17/08:00am 21.6 19.4 7.8 41 7.3 NNW 9 13 5 7 1020.5 - 0.0
17/07:30am 20.7 18.8 7.7 43 6.8 NW 7 13 4 7 1020.0 - 0.0
17/07:00am 18.9 16.4 8.0 49 5.7 NNW 11 15 6 8 1019.4 - 0.0
17/06:30am 15.7 13.7 8.8 63 3.6 N 9 11 5 6 1019.1 - 0.0
17/06:00am 14.2 12.9 10.0 76 2.2 N 7 9 4 5 1018.9 1017.8 0.0
17/05:30am 14.2 14.4 10.6 79 1.9 CALM 0 0 0 0 1018.9 - 0.0
17/05:00am 14.2 14.3 10.0 76 2.2 CALM 0 0 0 0 1018.9 - 0.0
17/04:30am 14.1 13.2 10.5 79 1.9 NNW 6 7 3 4 1018.6 - 0.0
17/04:00am 14.8 13.9 10.7 76 2.2 N 6 6 3 3 1018.4 - 0.0
17/03:30am 15.1 14.6 10.6 74 2.4 NNE 4 9 2 5 1018.6 - 0.0
17/03:00am 16.1 15.2 10.5 69 3.0 W 6 7 3 4 1018.6 1017.4 0.0
17/02:30am 17.3 15.3 10.3 63 3.8 WNW 11 20 6 11 1018.7 - 0.0
17/02:00am 16.7 16.6 10.8 68 3.2 SE 2 6 1 3 1018.3 - 0.0
17/01:30am 17.1 16.1 11.1 68 3.3 SE 7 7 4 4 1018.4 - 0.0
17/01:00am 18.1 16.9 10.4 60 4.2 SSE 7 9 4 5 1018.6 - 0.0
17/12:30am 17.9 16.8 10.8 63 3.9 SE 7 9 4 5 1018.6 - 0.0
17/12:00am 18.8 17.9 10.6 59 4.5 SE 6 7 3 4 1018.8 1017.7 0.0
 
Date/Time
WST
Temp
°C
App
Temp
°C
Dew
Point
Rel
Hum
%
Delta-T
°C
Wind Press
QNH
hPa
Press
MSL
hPa
Rain
since 9 am
mm
Dir
 
Spd
km/h
Gust
km/h
Spd
kts
Gust
kts
16/11:30pm 19.0 18.3 11.3 61 4.3 SE 6 7 3 4 1018.9 - 0.0
16/11:00pm 18.9 18.2 11.3 61 4.2 SE 6 7 3 4 1019.2 - 0.0
16/10:30pm 19.5 18.8 11.9 61 4.3 SE 7 9 4 5 1019.3 - 0.0
16/10:00pm 20.4 18.7 11.3 56 5.1 SE 11 13 6 7 1019.5 - 0.0
16/09:30pm 19.7 17.9 11.0 57 4.8 SE 11 15 6 8 1019.4 - 0.0
16/09:00pm 20.1 18.8 11.1 56 5.0 SSE 9 11 5 6 1019.7 1018.6 0.0
16/08:30pm 20.6 19.9 11.9 57 4.9 SE 7 9 4 5 1019.5 - 0.0
16/08:00pm 21.3 19.8 11.8 54 5.4 SE 11 13 6 7 1019.4 - 0.0
16/07:30pm 21.6 20.4 11.5 52 5.7 SE 9 11 5 6 1019.2 - 0.0
16/07:00pm 22.9 21.0 11.7 49 6.4 SE 13 17 7 9 1019.2 - 0.0
16/06:30pm 23.7 21.2 11.2 45 7.1 SE 15 19 8 10 1019.1 - 0.0
16/06:00pm 24.2 22.7 9.1 38 8.3 S 7 7 4 4 1019.0 1017.9 0.0
16/05:30pm 26.2 24.6 8.8 33 9.6 S 7 7 4 4 1018.9 - 0.0
16/05:00pm 27.7 25.5 8.0 29 10.8 SSW 9 13 5 7 1018.8 - 0.0
16/04:30pm 28.3 26.2 8.2 28 11.1 WSW 9 17 5 9 1018.8 - 0.0
16/04:00pm 28.9 26.8 8.4 27 11.4 W 9 15 5 8 1018.8 - 0.0
16/03:30pm 28.8 27.4 8.7 28 11.2 NW 6 13 3 7 1018.8 - 0.0
16/03:00pm 28.0 26.9 9.8 32 10.3 E 6 13 3 7 1019.0 1017.9 0.0
16/02:30pm 27.7 26.4 10.1 33 10.0 ESE 7 15 4 8 1019.2 - 0.0
16/02:00pm 27.0 25.3 9.8 34 9.7 ESE 9 19 5 10 1019.4 - 0.0
16/01:30pm 26.8 25.8 10.9 37 9.1 E 7 13 4 7 1019.7 - 0.0
16/01:00pm 25.2 23.5 11.2 41 8.0 ESE 11 17 6 9 1020.1 - 0.0
16/12:30pm 25.2 23.9 11.4 42 7.9 ENE 9 22 5 12 1020.8 - 0.0
16/12:00pm 24.3 23.4 11.5 44 7.3 ESE 7 15 4 8 1021.4 1020.3 0.0
16/11:30am 23.4 21.5 11.9 48 6.6 ENE 13 22 7 12 1021.9 - 0.0
16/11:00am 22.9 21.9 12.3 51 6.1 ENE 9 17 5 9 1022.5 - 0.0
16/10:30am 22.1 20.4 12.3 53 5.6 E 13 20 7 11 1022.8 - 0.0
16/10:00am 21.2 19.5 12.5 57 5.0 ESE 13 22 7 12 1023.1 - 0.0
16/09:30am 20.1 17.7 12.6 62 4.3 ESE 17 22 9 12 1023.4 - 0.0
16/09:00am 19.3 16.8 12.4 64 3.9 SE 17 26 9 14 1023.5 1022.3 0.0
16/08:30am 18.3 15.5 12.5 69 3.3 SE 19 24 10 13 1023.2 - 0.0
16/08:00am 17.5 14.4 12.1 70 3.0 ESE 20 28 11 15 1023.1 - 0.0
16/07:30am 17.1 14.5 12.1 72 2.8 ESE 17 22 9 12 1022.8 - 0.0
16/07:00am 15.9 14.7 11.5 75 2.4 SE 9 13 5 7 1022.7 - 0.0
16/06:30am 14.6 13.3 11.3 80 1.8 ESE 9 11 5 6 1022.3 - 0.0
16/06:00am 15.2 13.1 11.3 77 2.1 SE 13 15 7 8 1022.1 1021.0 0.0
16/05:30am 15.6 13.6 11.4 76 2.3 SE 13 17 7 9 1021.7 - 0.0
16/05:00am 16.1 13.3 11.3 73 2.6 SE 17 26 9 14 1021.6 - 0.0
16/04:30am 16.4 13.5 11.1 71 2.9 SE 17 20 9 11 1021.5 - 0.0
16/04:00am 16.9 13.6 11.0 68 3.2 SE 19 24 10 13 1021.3 - 0.0
16/03:30am 17.5 14.6 10.9 65 3.6 SSE 17 28 9 15 1021.2 - 0.0
16/03:00am 17.4 14.8 10.8 65 3.6 S 15 20 8 11 1021.0 1019.8 0.0
16/02:30am 17.7 15.9 10.9 64 3.7 SSE 11 17 6 9 1020.6 - 0.0
16/02:00am 18.1 16.3 10.8 62 4.0 SSE 11 17 6 9 1020.7 - 0.0
16/01:30am 18.5 16.2 10.6 60 4.3 SSE 13 17 7 9 1020.7 - 0.0
16/01:00am 19.1 16.7 10.1 56 4.9 S 13 20 7 11 1021.0 - 0.0
16/12:30am 18.8 16.6 9.5 54 5.0 SSE 11 13 6 7 1020.9 - 0.0
16/12:00am 20.2 17.9 9.0 48 6.0 SSE 11 15 6 8 1020.7 1019.5 0.0
 
Date/Time
WST
Temp
°C
App
Temp
°C
Dew
Point
Rel
Hum
%
Delta-T
°C
Wind Press
QNH
hPa
Press
MSL
hPa
Rain
since 9 am
mm
Dir
 
Spd
km/h
Gust
km/h
Spd
kts
Gust
kts
15/11:30pm 21.2 17.5 6.1 37 7.7 SSE 15 17 8 9 1020.9 - 0.0
15/11:00pm 20.6 18.7 6.6 40 7.2 SSE 6 7 3 4 1020.9 - 0.0
15/10:30pm 22.1 18.2 5.3 33 8.5 SSW 15 20 8 11 1021.0 - 0.0
15/10:00pm 21.0 19.1 7.7 42 7.0 NNW 7 9 4 5 1020.3 - 0.0
15/09:30pm 21.4 19.5 7.5 40 7.3 NNW 7 7 4 4 1020.6 - 0.0

Other Formats:

Comma delimited format used in spreadsheet applications
http://www.bom.gov.au/fwo/IDW60801/IDW60801.94637.axf

JavaScript Object Notation format (JSON) in row-major order
http://www.bom.gov.au/fwo/IDW60801/IDW60801.94637.json